Time;durP1;ratioP1;P1;durP2;ratioP2;P2;SDS_P1;SDS_P2;PMS_P1;PMS_P2;Temp;Humidity;BMP_temperature;BMP_pressure;BME280_temperature;BME280_humidity;BME280_pressure;Samples;Min_cycle;Max_cycle;Signal;HPM_P1;HPM_P2
2023/08/07 00:02:06;;;;;;;7.00;2.10;;;14.70;99.90;;;14.76;85.26;100055.38;4909938;29;20040;-87
2023/08/07 00:04:34;;;;;;;5.32;2.50;;;14.60;99.90;;;14.71;86.12;100055.31;4912071;29;20509;-87
2023/08/07 00:07:02;;;;;;;5.32;1.88;;;14.60;99.90;;;14.71;86.57;100063.34;4912214;29;20048;-87
2023/08/07 00:09:29;;;;;;;4.18;1.80;;;14.50;99.90;;;14.73;86.82;100049.69;4905715;29;20078;-87
2023/08/07 00:11:56;;;;;;;5.32;1.98;;;14.50;99.90;;;14.67;86.88;100056.84;4908934;29;20078;-87
2023/08/07 00:14:25;;;;;;;6.90;3.05;;;14.50;99.90;;;14.69;86.97;100057.44;4915265;29;20511;-87
2023/08/07 00:16:52;;;;;;;8.68;3.28;;;14.50;99.90;;;14.76;87.21;100066.09;4908235;29;20052;-87
2023/08/07 00:19:19;;;;;;;5.55;2.45;;;14.60;99.90;;;14.76;86.49;100055.38;4914737;29;20048;-87
2023/08/07 00:21:47;;;;;;;8.38;2.60;;;14.60;99.90;;;14.68;87.19;100061.97;4896215;29;20474;-87
2023/08/07 00:24:14;;;;;;;10.02;3.30;;;14.50;99.90;;;14.62;88.02;100062.16;4896005;29;20072;-87
2023/08/07 00:26:41;;;;;;;8.05;3.20;;;14.50;99.90;;;14.64;87.84;100054.66;4909526;29;20800;-87
2023/08/07 00:29:09;;;;;;;10.27;3.67;;;14.50;99.90;;;14.58;87.81;100069.06;4916350;29;20576;-87
2023/08/07 00:31:37;;;;;;;10.30;3.63;;;14.50;99.90;;;14.58;88.29;100067.19;4916460;29;20545;-87
2023/08/07 00:34:05;;;;;;;8.77;3.30;;;14.50;99.90;;;14.59;88.88;100065.31;4931221;29;20087;-87
2023/08/07 00:36:34;;;;;;;9.02;3.65;;;14.50;99.90;;;14.63;88.55;100071.81;4910298;29;20048;-87
2023/08/07 00:39:03;;;;;;;7.63;3.22;;;14.50;99.90;;;14.65;88.41;100077.78;4911797;29;20060;-87
2023/08/07 00:41:31;;;;;;;7.88;3.47;;;14.50;99.90;;;14.68;88.07;100070.03;4928971;29;20417;-87
2023/08/07 00:43:58;;;;;;;11.30;3.40;;;14.50;99.90;;;14.61;88.22;100076.66;4916061;29;20040;-87
2023/08/07 00:46:26;;;;;;;11.10;3.55;;;14.50;99.90;;;14.66;88.35;100082.09;4930468;29;20490;-87
2023/08/07 00:48:55;;;;;;;9.27;3.10;;;14.50;99.90;;;14.67;87.74;100079.13;4918973;29;20052;-87
2023/08/07 00:51:23;;;;;;;10.05;2.80;;;14.50;99.90;;;14.62;87.74;100091.69;4914520;29;20036;-87
2023/08/07 00:53:51;;;;;;;8.82;3.50;;;14.50;99.90;;;14.64;87.36;100084.19;4907303;29;20079;-87
2023/08/07 00:56:19;;;;;;;15.88;3.00;;;14.50;99.90;;;14.70;87.85;100085.91;4906865;29;20301;-87
2023/08/07 00:58:46;;;;;;;8.05;2.85;;;14.50;99.90;;;14.72;87.47;100089.13;4922248;29;20072;-87
2023/08/07 01:01:14;;;;;;;13.15;3.40;;;14.50;99.90;;;14.74;87.13;100083.50;4914039;29;20177;-86
2023/08/07 01:03:41;;;;;;;7.13;3.00;;;14.50;99.90;;;14.76;87.51;100095.63;4905601;29;20056;-87
2023/08/07 01:06:10;;;;;;;11.30;4.10;;;14.60;99.90;;;14.81;86.96;100095.72;4897165;29;20072;-87
2023/08/07 01:08:37;;;;;;;11.77;3.22;;;14.60;99.90;;;14.76;86.91;100094.81;4922040;29;20075;-86
2023/08/07 01:11:23;;;;;;;10.05;3.30;;;14.60;99.90;;;14.77;86.55;100096.44;4931817;29;20052;-86
2023/08/07 01:14:00;;;;;;;12.25;3.35;;;14.60;99.90;;;14.71;86.68;100092.06;4916353;29;20050;-86
2023/08/07 01:16:34;;;;;;;10.27;3.13;;;14.50;99.90;;;14.72;87.66;100099.06;4914807;29;20881;-87
2023/08/07 01:19:04;;;;;;;9.10;3.08;;;14.50;99.90;;;14.70;86.87;100093.16;4914829;29;20082;-87
2023/08/07 01:21:34;;;;;;;11.10;3.05;;;14.50;99.90;;;14.69;86.52;100108.44;4912704;29;20083;-87
2023/08/07 01:24:02;;;;;;;12.07;3.40;;;14.50;99.90;;;14.72;86.01;100099.06;4911847;29;20053;-87
2023/08/07 01:26:30;;;;;;;11.55;3.42;;;14.50;99.90;;;14.70;86.78;100103.88;4905951;29;20665;-88
2023/08/07 01:29:09;;;;;;;9.65;3.20;;;14.50;99.90;;;14.75;86.62;100094.03;4920724;29;20130;-87
2023/08/07 01:31:39;;;;;;;8.60;3.05;;;14.60;99.90;;;14.77;86.51;100097.25;4914684;29;20044;-87
2023/08/07 01:34:09;;;;;;;10.65;3.33;;;14.60;99.90;;;14.73;86.18;100089.94;4927288;29;20079;-87
2023/08/07 01:36:39;;;;;;;10.40;2.95;;;14.50;99.90;;;14.76;86.73;100097.50;4929709;29;20051;-87
2023/08/07 01:39:09;;;;;;;13.15;3.25;;;14.60;99.90;;;14.83;86.09;100096.25;4914542;29;20474;-87
2023/08/07 01:41:37;;;;;;;7.35;3.17;;;14.60;99.90;;;14.81;86.12;100097.59;4912735;29;20131;-87
2023/08/07 01:44:06;;;;;;;10.15;4.40;;;14.60;99.90;;;14.72;85.86;100102.56;4912864;29;20668;-87
2023/08/07 01:46:33;;;;;;;7.68;3.28;;;14.50;99.90;;;14.71;86.28;100094.75;4901193;29;20535;-87
2023/08/07 01:49:00;;;;;;;9.43;3.72;;;14.50;99.90;;;14.68;86.34;100106.78;4924531;29;20115;-87
2023/08/07 01:51:27;;;;;;;8.65;3.83;;;14.50;99.90;;;14.70;86.09;100102.00;4918520;29;20052;-87
2023/08/07 01:53:55;;;;;;;9.88;3.45;;;14.50;99.90;;;14.67;86.56;100102.50;4911344;29;20048;-87
2023/08/07 01:56:23;;;;;;;9.43;3.50;;;14.50;99.90;;;14.70;86.43;100099.31;4926518;29;20121;-87
2023/08/07 01:58:51;;;;;;;10.07;3.40;;;14.50;99.90;;;14.78;86.35;100101.56;4905958;29;20604;-87
2023/08/07 02:01:19;;;;;;;9.57;3.42;;;14.60;99.90;;;14.81;85.98;100103.75;4913940;29;20127;-87
2023/08/07 02:03:46;;;;;;;8.90;3.38;;;14.60;99.90;;;14.73;85.15;100106.84;4922031;29;20054;-87
2023/08/07 02:06:14;;;;;;;9.05;3.30;;;14.60;99.90;;;14.67;85.71;100102.50;4914406;29;20554;-87
2023/08/07 02:08:41;;;;;;;8.00;3.45;;;14.50;99.90;;;14.56;86.28;100114.16;4914206;29;20075;-87
2023/08/07 02:11:08;;;;;;;6.60;3.30;;;14.40;99.90;;;14.62;86.39;100107.78;4907547;29;20470;-87
2023/08/07 02:13:39;;;;;;;7.53;3.28;;;14.40;99.90;;;14.55;87.34;100107.97;4915801;29;20051;-87
2023/08/07 02:16:07;;;;;;;5.72;2.60;;;14.40;99.90;;;14.47;87.57;100111.03;4916929;29;20040;-87
2023/08/07 02:18:35;;;;;;;6.47;2.63;;;14.30;99.90;;;14.53;88.05;100109.25;4933049;29;20072;-87
2023/08/07 02:21:02;;;;;;;8.82;2.42;;;14.40;99.90;;;14.62;87.65;100118.53;4913325;29;20049;-87
2023/08/07 02:23:30;;;;;;;6.78;2.30;;;14.40;99.90;;;14.59;87.16;100113.63;4927627;29;20087;-87
2023/08/07 02:25:57;;;;;;;6.82;2.05;;;14.40;99.90;;;14.64;87.07;100111.88;4898366;29;20051;-87
2023/08/07 02:28:24;;;;;;;8.30;2.30;;;14.40;99.90;;;14.62;86.46;100118.53;4909095;29;20037;-87
2023/08/07 02:30:54;;;;;;;4.35;2.10;;;14.40;99.90;;;14.65;86.56;100115.34;4929419;29;20057;-87
2023/08/07 02:33:21;;;;;;;5.80;2.00;;;14.50;99.90;;;14.68;86.54;100120.22;4925619;29;20083;-87
2023/08/07 02:35:49;;;;;;;4.10;1.80;;;14.50;99.90;;;14.62;86.44;100119.31;4906054;29;20049;-87
2023/08/07 02:38:17;;;;;;;6.57;2.42;;;14.50;99.90;;;14.63;86.39;100123.63;4922402;29;20048;-87
2023/08/07 02:40:44;;;;;;;5.93;1.80;;;14.50;99.90;;;14.55;86.81;100125.94;4913991;29;20047;-87
2023/08/07 02:43:12;;;;;;;5.32;2.08;;;14.40;99.90;;;14.55;87.22;100125.94;4914161;29;20147;-87
2023/08/07 02:45:39;;;;;;;5.47;2.33;;;14.40;99.90;;;14.49;86.67;100129.59;4915835;29;20052;-87
2023/08/07 02:48:08;;;;;;;9.45;2.97;;;14.40;99.90;;;14.34;87.96;100130.94;4910699;29;20051;-87
2023/08/07 02:50:36;;;;;;;7.68;2.90;;;14.30;99.90;;;14.39;88.28;100122.16;4910646;29;20839;-87
2023/08/07 02:53:04;;;;;;;9.68;3.75;;;14.30;99.90;;;14.39;88.16;100133.69;4917517;29;20139;-87
2023/08/07 02:55:31;;;;;;;8.93;3.63;;;14.30;99.90;;;14.45;87.84;100131.94;4908213;29;20517;-87
2023/08/07 02:57:58;;;;;;;11.80;4.35;;;14.40;99.90;;;14.46;87.83;100135.44;4928049;29;20057;-87
2023/08/07 03:00:25;;;;;;;9.23;3.55;;;14.40;99.90;;;14.44;88.05;100138.34;4931662;29;20051;-87
2023/08/07 03:02:53;;;;;;;10.27;3.38;;;14.30;99.90;;;14.49;88.08;100133.09;4916623;29;20156;-87
2023/08/07 03:05:21;;;;;;;6.72;3.22;;;14.40;99.90;;;14.49;87.63;100137.63;4916449;29;20488;-87
2023/08/07 03:07:49;;;;;;;9.55;3.10;;;14.40;99.90;;;14.46;87.86;100136.25;4918082;29;20055;-87
2023/08/07 03:10:16;;;;;;;7.53;2.88;;;14.30;99.90;;;14.55;88.23;100125.94;4925314;29;20432;-87
2023/08/07 03:12:44;;;;;;;10.02;2.85;;;14.40;99.90;;;14.52;87.60;100140.66;4926185;29;20068;-87
2023/08/07 03:15:12;;;;;;;9.98;3.20;;;14.40;99.90;;;14.50;87.62;100141.97;4916227;29;20485;-87
2023/08/07 03:17:39;;;;;;;8.73;3.10;;;14.40;99.90;;;14.47;87.41;100143.22;4916703;29;20163;-87
2023/08/07 03:20:07;;;;;;;5.45;2.58;;;14.40;99.90;;;14.48;87.95;100154.81;4916782;29;20044;-87
2023/08/07 03:22:36;;;;;;;9.25;2.80;;;14.30;99.90;;;14.47;87.95;100137.88;4915271;29;20044;-87
2023/08/07 03:25:04;;;;;;;9.93;3.25;;;14.30;99.90;;;14.43;87.74;100134.84;4935780;28;20056;-87
2023/08/07 03:27:31;;;;;;;9.07;4.03;;;14.30;99.90;;;14.37;87.98;100133.16;4914993;29;20056;-87
2023/08/07 03:29:58;;;;;;;9.30;3.15;;;14.30;99.90;;;14.44;88.39;100135.66;4915283;29;20127;-87
2023/08/07 03:32:29;;;;;;;9.82;4.00;;;14.30;99.90;;;14.52;87.86;100145.22;4916662;29;20048;-87
2023/08/07 03:34:57;;;;;;;9.27;5.00;;;14.30;99.90;;;14.41;87.23;100145.03;4926829;29;20099;-87
2023/08/07 03:37:26;;;;;;;10.98;4.50;;;14.30;99.90;;;14.41;88.28;100139.66;4934962;29;20588;-87
2023/08/07 03:39:54;;;;;;;12.10;4.22;;;14.30;99.90;;;14.42;87.75;100140.47;4915962;29;20119;-87
2023/08/07 03:42:22;;;;;;;10.27;4.15;;;14.30;99.90;;;14.38;87.53;100145.50;4922218;29;20047;-87
2023/08/07 03:44:49;;;;;;;10.63;4.03;;;14.30;99.90;;;14.43;87.40;100150.94;4911803;29;20065;-87
2023/08/07 03:47:16;;;;;;;14.30;4.68;;;14.30;99.90;;;14.38;87.59;100148.19;4914606;29;20139;-87
2023/08/07 03:49:44;;;;;;;12.00;4.35;;;14.30;99.90;;;14.42;87.81;100156.56;4912476;29;20503;-87
2023/08/07 03:52:11;;;;;;;10.35;4.00;;;14.30;99.90;;;14.40;87.03;100151.44;4926459;29;20044;-87
2023/08/07 03:54:39;;;;;;;10.48;3.85;;;14.30;99.90;;;14.47;87.27;100153.16;4915400;29;20044;-87
2023/08/07 03:57:08;;;;;;;12.65;4.55;;;14.30;99.90;;;14.47;87.37;100156.66;4912648;29;20143;-87
2023/08/07 03:59:36;;;;;;;13.70;5.10;;;14.30;99.90;;;14.47;86.95;100145.91;4927623;29;20574;-87
2023/08/07 04:02:03;;;;;;;22.55;6.82;;;14.30;99.90;;;14.39;86.25;100144.44;4917946;29;20456;-87
2023/08/07 04:04:31;;;;;;;14.15;6.28;;;14.30;99.90;;;14.37;87.00;100143.88;4915479;29;20684;-87
2023/08/07 04:06:58;;;;;;;15.43;6.30;;;14.20;99.90;;;14.41;87.38;100150.38;4915276;29;20048;-87
2023/08/07 04:09:25;;;;;;;17.10;6.70;;;14.30;99.90;;;14.43;86.96;100142.91;4915455;29;20159;-87
2023/08/07 04:11:53;;;;;;;15.65;5.85;;;14.30;99.90;;;14.46;86.69;100154.22;4907264;29;20048;-87
2023/08/07 04:14:21;;;;;;;15.10;5.32;;;14.30;99.90;;;14.45;86.84;100150.72;4915125;29;20512;-86
2023/08/07 04:16:49;;;;;;;15.70;5.05;;;14.30;99.90;;;14.42;86.93;100152.00;4931030;29;20040;-88
2023/08/07 04:19:16;;;;;;;14.10;4.63;;;14.30;99.90;;;14.49;87.36;100151.06;4914577;29;20052;-84
2023/08/07 04:21:43;;;;;;;17.70;4.65;;;14.30;99.90;;;14.51;87.02;100149.75;4916214;29;20048;-85
2023/08/07 04:24:11;;;;;;;13.82;4.65;;;14.30;99.90;;;14.53;86.80;100152.19;4932261;29;20076;-84
2023/08/07 04:26:38;;;;;;;16.20;4.53;;;14.30;99.90;;;14.47;86.30;100153.16;4927256;29;20056;-85
2023/08/07 04:29:07;;;;;;;13.38;3.95;;;14.30;99.90;;;14.46;87.06;100162.25;4916906;29;20123;-86
2023/08/07 04:31:36;;;;;;;18.13;4.60;;;14.30;99.90;;;14.41;87.38;100163.00;4923490;29;20040;-85
2023/08/07 04:34:03;;;;;;;16.33;5.07;;;14.30;99.90;;;14.41;87.38;100163.81;4911557;29;20112;-85
2023/08/07 04:36:30;;;;;;;20.42;5.10;;;14.30;99.90;;;14.43;86.95;100159.00;4909904;29;20055;-86
2023/08/07 04:38:57;;;;;;;13.50;4.65;;;14.30;99.90;;;14.41;86.95;100155.75;4928346;29;20444;-85
2023/08/07 04:41:25;;;;;;;14.55;4.57;;;14.30;99.90;;;14.42;87.37;100152.00;4928622;29;20581;-85
2023/08/07 04:43:52;;;;;;;13.70;4.80;;;14.30;99.90;;;14.40;86.94;100154.13;4923072;29;20052;-85
2023/08/07 04:46:19;;;;;;;18.30;5.25;;;14.30;99.90;;;14.40;87.12;100150.63;4930884;29;20420;-86
2023/08/07 04:48:48;;;;;;;24.85;4.80;;;14.20;99.90;;;14.35;86.96;100159.41;4915497;29;20091;-87
2023/08/07 04:51:17;;;;;;;14.73;4.18;;;14.20;99.90;;;14.37;87.65;100157.28;4915454;29;20048;-86
2023/08/07 04:53:44;;;;;;;14.63;4.28;;;14.20;99.90;;;14.38;87.57;100153.56;4918852;29;20048;-87
2023/08/07 04:56:12;;;;;;;19.05;4.00;;;14.20;99.90;;;14.37;87.21;100164.53;4930619;29;20152;-86
2023/08/07 04:58:39;;;;;;;10.07;3.47;;;14.20;99.90;;;14.36;87.77;100154.88;4916964;29;20100;-87
2023/08/07 05:01:11;;;;;;;11.48;3.50;;;14.20;99.90;;;14.41;87.49;100149.56;4923221;29;20040;-87
2023/08/07 05:03:38;;;;;;;16.27;3.92;;;14.30;99.90;;;14.40;87.19;100156.00;4908402;29;20387;-86
2023/08/07 05:06:07;;;;;;;13.23;3.47;;;14.30;99.90;;;14.39;87.07;100154.34;4909223;29;20051;-87
2023/08/07 05:08:35;;;;;;;18.17;3.50;;;14.30;99.90;;;14.32;86.77;100156.41;4910464;29;20052;-86
2023/08/07 05:11:02;;;;;;;12.93;3.22;;;14.30;99.90;;;14.33;87.09;100153.47;4908075;29;20058;-87
2023/08/07 05:13:30;;;;;;;13.73;3.83;;;14.20;99.90;;;14.30;87.37;100148.59;4911513;29;20151;-86
2023/08/07 05:15:57;;;;;;;13.98;3.47;;;14.20;99.90;;;14.31;87.38;100155.59;4925207;29;20020;-86
2023/08/07 05:18:24;;;;;;;15.32;4.00;;;14.20;99.90;;;14.32;86.71;100157.22;4937768;29;20103;-85
2023/08/07 05:20:51;;;;;;;15.23;3.30;;;14.20;99.90;;;14.29;86.72;100156.88;4932342;29;20035;-86
2023/08/07 05:23:20;;;;;;;15.38;4.00;;;14.20;99.90;;;14.25;87.01;100159.25;4949346;28;20119;-87
2023/08/07 05:25:48;;;;;;;15.02;3.90;;;14.10;99.90;;;14.27;87.31;100161.69;4918802;29;20072;-87
2023/08/07 05:28:16;;;;;;;10.15;3.78;;;14.10;99.90;;;14.17;87.31;100155.09;4916303;29;20175;-86
2023/08/07 05:30:43;;;;;;;14.27;3.60;;;14.10;99.90;;;14.16;87.99;100163.38;4931329;29;20505;-86
2023/08/07 05:33:11;;;;;;;12.48;3.63;;;14.10;99.90;;;14.20;88.27;100158.34;4914278;29;20139;-85
2023/08/07 05:35:39;;;;;;;12.38;3.30;;;14.10;99.90;;;14.15;87.96;100164.41;4912308;29;20141;-85
2023/08/07 05:38:06;;;;;;;9.98;3.40;;;14.10;99.90;;;14.18;88.32;100161.25;4915444;29;20048;-85
2023/08/07 05:40:36;;;;;;;9.77;2.88;;;14.10;99.90;;;14.25;88.02;100169.16;4927990;29;20076;-85
2023/08/07 05:43:03;;;;;;;13.52;3.17;;;14.20;99.90;;;14.26;88.32;100185.03;4916084;29;20055;-85
2023/08/07 05:45:31;;;;;;;11.15;3.28;;;14.10;99.90;;;14.21;87.65;100174.19;4914487;29;20078;-85
2023/08/07 05:47:58;;;;;;;7.82;2.75;;;14.10;99.90;;;14.29;88.38;100186.38;4917619;29;20048;-85
2023/08/07 05:50:25;;;;;;;9.75;2.72;;;14.10;99.90;;;14.30;87.98;100178.13;4918609;29;20078;-85
2023/08/07 05:52:52;;;;;;;11.85;2.97;;;14.10;99.90;;;14.30;87.75;100191.53;4915419;29;20453;-85
2023/08/07 05:55:20;;;;;;;9.55;3.00;;;14.10;99.90;;;14.26;88.22;100194.94;4912066;29;20048;-85
2023/08/07 05:57:49;;;;;;;10.20;3.03;;;14.10;99.90;;;14.28;88.39;100185.56;4918539;29;20078;-85
2023/08/07 06:00:19;;;;;;;8.65;3.08;;;14.20;99.90;;;14.25;87.93;100187.91;4918734;29;20040;-85
2023/08/07 06:02:47;;;;;;;6.85;2.63;;;14.10;99.90;;;14.24;88.07;100192.47;4918726;29;20127;-84
2023/08/07 06:05:15;;;;;;;11.82;2.88;;;14.10;99.90;;;14.24;87.80;100197.84;4914753;29;20175;-84
2023/08/07 06:07:42;;;;;;;10.27;2.85;;;14.00;99.90;;;14.26;87.47;100200.31;4919061;29;20047;-84
2023/08/07 06:10:10;;;;;;;9.30;2.78;;;14.10;99.90;;;14.22;88.09;100210.69;4918097;29;20059;-84
2023/08/07 06:12:37;;;;;;;11.07;3.45;;;14.10;99.90;;;14.20;88.16;100204.78;4917207;29;20151;-84
2023/08/07 06:15:08;;;;;;;9.63;3.00;;;14.10;99.90;;;14.17;88.73;100202.56;4918206;29;20075;-85
2023/08/07 06:17:36;;;;;;;9.45;3.33;;;14.00;99.90;;;14.20;88.91;100203.94;4933164;29;20147;-84
2023/08/07 06:20:04;;;;;;;11.93;3.97;;;14.00;99.90;;;14.19;89.20;100200.44;4918842;29;20105;-84
2023/08/07 06:22:32;;;;;;;10.32;3.97;;;14.10;99.90;;;14.16;89.18;100209.78;4921789;29;20040;-84
2023/08/07 06:24:59;;;;;;;10.43;3.70;;;14.00;99.90;;;14.14;90.28;100208.41;4918142;29;20048;-85
2023/08/07 06:27:27;;;;;;;9.07;3.90;;;14.00;99.90;;;14.20;90.25;100212.81;4916480;29;20060;-84
2023/08/07 06:29:55;;;;;;;15.27;4.90;;;14.10;99.90;;;14.11;89.76;100217.75;4918726;29;20048;-84
2023/08/07 06:32:24;;;;;;;11.57;4.63;;;14.10;99.90;;;14.07;91.08;100213.09;4916810;29;20237;-84
2023/08/07 06:34:51;;;;;;;8.20;4.53;;;14.00;99.90;;;14.11;91.28;100214.25;4918361;29;20040;-85
2023/08/07 06:37:19;;;;;;;9.90;4.45;;;14.00;99.90;;;14.13;91.67;100229.03;4919464;29;20083;-84
2023/08/07 06:39:47;;;;;;;11.30;5.22;;;14.10;99.90;;;14.18;92.36;100228.31;4932103;29;20044;-84
2023/08/07 06:42:14;;;;;;;11.15;4.75;;;14.10;99.90;;;14.15;91.95;100234.16;4932297;29;20052;-85
2023/08/07 06:44:44;;;;;;;11.50;4.95;;;14.10;99.90;;;14.12;92.31;100242.69;4914088;29;20058;-85
2023/08/07 06:47:11;;;;;;;11.88;4.35;;;14.10;99.90;;;14.19;92.95;100237.97;4914235;29;20060;-85
2023/08/07 06:49:40;;;;;;;13.63;4.78;;;14.10;99.90;;;14.24;93.02;100248.81;4916589;29;20052;-85
2023/08/07 06:52:08;;;;;;;12.98;5.05;;;14.10;99.90;;;14.26;92.61;100233.31;4916821;29;20151;-85
2023/08/07 06:54:35;;;;;;;12.65;4.65;;;14.10;99.90;;;14.23;92.88;100233.78;4916024;29;20052;-85
2023/08/07 06:57:03;;;;;;;11.52;4.40;;;14.10;99.90;;;14.32;93.12;100239.56;4922640;29;20044;-85
2023/08/07 06:59:30;;;;;;;11.45;4.18;;;14.20;99.90;;;14.37;92.55;100250.38;4916775;29;20075;-85
2023/08/07 07:01:57;;;;;;;9.73;4.28;;;14.30;99.90;;;14.38;92.03;100246.63;4917141;29;20070;-84
2023/08/07 07:04:24;;;;;;;6.53;3.67;;;14.30;99.90;;;14.35;92.19;100249.81;4931887;29;20052;-84
2023/08/07 07:06:53;;;;;;;7.85;4.10;;;14.30;99.90;;;14.37;92.00;100258.44;4916709;29;20052;-84
2023/08/07 07:09:20;;;;;;;11.00;3.90;;;14.30;99.90;;;14.30;92.20;100253.22;4916880;29;20071;-84
2023/08/07 07:11:47;;;;;;;8.13;4.15;;;14.20;99.90;;;14.28;92.61;100263.38;4917920;29;20119;-84
2023/08/07 07:14:15;;;;;;;13.35;4.03;;;14.20;99.90;;;14.27;93.21;100260.94;4916094;29;20076;-84
2023/08/07 07:16:43;;;;;;;10.63;4.38;;;14.20;99.90;;;14.28;93.80;100258.00;4916837;29;20122;-84
2023/08/07 07:19:10;;;;;;;12.10;4.82;;;14.20;99.90;;;14.31;93.58;100259.41;4916401;29;20075;-84
2023/08/07 07:21:37;;;;;;;10.45;4.45;;;14.30;99.90;;;14.32;93.92;100267.22;4932185;29;20048;-84
2023/08/07 07:24:06;;;;;;;12.02;4.30;;;14.30;99.90;;;14.34;94.11;100270.44;4916331;29;20114;-85
2023/08/07 07:26:34;;;;;;;7.28;4.43;;;14.30;99.90;;;14.41;94.23;100257.72;4917137;29;20080;-85
2023/08/07 07:29:01;;;;;;;9.88;4.50;;;14.40;99.90;;;14.39;93.65;100269.72;4917972;29;20112;-85
2023/08/07 07:31:28;;;;;;;13.20;4.50;;;14.40;99.90;;;14.30;93.94;100271.16;4917556;29;20123;-85
2023/08/07 07:33:56;;;;;;;10.10;4.43;;;14.30;99.90;;;14.31;94.91;100275.50;4917527;29;20046;-85
2023/08/07 07:36:23;;;;;;;9.70;3.90;;;14.30;99.90;;;14.37;95.15;100285.28;4913196;29;20048;-85
2023/08/07 07:38:50;;;;;;;9.80;4.68;;;14.30;99.90;;;14.40;94.62;100285.59;4909883;29;20056;-85
2023/08/07 07:41:19;;;;;;;11.70;4.35;;;14.40;99.90;;;14.22;94.88;100285.81;4915196;29;20520;-85
2023/08/07 07:43:48;;;;;;;8.02;4.55;;;14.20;99.90;;;14.20;95.91;100295.13;4917093;29;20667;-85
2023/08/07 07:46:15;;;;;;;8.38;4.43;;;14.20;99.90;;;14.21;96.11;100294.91;4917122;29;20051;-85
2023/08/07 07:48:43;;;;;;;14.18;4.35;;;14.30;99.90;;;14.22;96.37;100299.22;4907973;29;20071;-85
2023/08/07 07:51:11;;;;;;;11.18;4.30;;;14.20;99.90;;;14.29;96.47;100304.41;4915610;29;20070;-85
2023/08/07 07:53:38;;;;;;;9.82;4.20;;;14.30;99.90;;;14.25;96.46;100306.78;4918363;29;20042;-86
2023/08/07 07:56:05;;;;;;;10.73;5.07;;;14.30;99.90;;;14.25;96.63;100309.47;4918941;29;20055;-84
2023/08/07 07:58:34;;;;;;;13.82;4.35;;;14.30;99.90;;;14.24;98.00;100312.38;4913040;29;20044;-85
2023/08/07 08:01:01;;;;;;;10.32;3.63;;;14.30;99.90;;;14.26;97.84;100313.78;4915940;29;20062;-84
2023/08/07 08:03:29;;;;;;;9.27;3.78;;;14.30;99.90;;;14.32;97.81;100312.81;4911167;29;20127;-84
2023/08/07 08:05:56;;;;;;;7.28;3.83;;;14.40;99.90;;;14.31;97.59;100327.28;4917872;29;20079;-86
2023/08/07 08:08:23;;;;;;;10.15;3.92;;;14.30;99.90;;;14.25;97.53;100335.47;4914861;29;20084;-84
2023/08/07 08:10:51;;;;;;;8.60;3.90;;;14.30;99.90;;;14.31;97.45;100338.03;4921316;29;20044;-84
2023/08/07 08:13:18;;;;;;;9.80;4.15;;;14.30;99.90;;;14.33;97.60;100338.59;4917772;29;20421;-85
2023/08/07 08:15:47;;;;;;;12.85;4.85;;;14.40;99.90;;;14.35;97.22;100349.91;4918296;29;20417;-85
2023/08/07 08:18:14;;;;;;;13.00;4.55;;;14.40;99.90;;;14.38;97.35;100353.97;4912385;29;20076;-85
2023/08/07 08:20:41;;;;;;;15.65;5.13;;;14.40;99.90;;;14.47;97.25;100359.78;4916388;29;20071;-84
2023/08/07 08:23:09;;;;;;;16.27;5.43;;;14.50;99.90;;;14.49;96.97;100360.38;4916731;29;20036;-86
2023/08/07 08:25:36;;;;;;;14.43;5.40;;;14.40;99.90;;;14.52;97.02;100367.94;4915318;29;20139;-87
2023/08/07 08:28:04;;;;;;;13.38;5.05;;;14.50;99.90;;;14.58;97.02;100364.28;4917013;29;20075;-87
2023/08/07 08:30:31;;;;;;;13.25;5.38;;;14.60;99.90;;;14.61;97.20;100366.50;4916314;29;20501;-87
2023/08/07 08:33:00;;;;;;;11.85;4.97;;;14.60;99.90;;;14.65;96.86;100370.34;4918031;29;20036;-87
2023/08/07 08:35:27;;;;;;;19.02;5.60;;;14.60;99.90;;;14.66;97.24;100380.03;4910545;29;20108;-87
2023/08/07 08:37:55;;;;;;;13.00;5.10;;;14.70;99.90;;;14.67;97.23;100373.59;4930645;29;20714;-87
2023/08/07 08:40:22;;;;;;;12.40;5.30;;;14.70;99.90;;;14.66;97.79;100380.03;4908210;29;20064;-87
2023/08/07 08:42:53;;;;;;;13.02;4.70;;;14.70;99.90;;;14.68;98.31;100391.31;4915765;29;20048;-87
2023/08/07 08:45:22;;;;;;;12.45;5.63;;;14.70;99.90;;;14.77;99.30;100389.88;4930991;29;20052;-87
2023/08/07 08:47:52;;;;;;;15.50;5.38;;;14.80;99.90;;;14.85;100.00;100396.75;4897760;29;20067;-87
2023/08/07 08:50:21;;;;;;;12.73;5.53;;;14.90;99.90;;;14.91;100.00;100391.22;4926242;29;20139;-87
2023/08/07 08:52:52;;;;;;;13.88;6.32;;;15.00;99.90;;;14.97;100.00;100394.81;4922506;29;20040;-87
2023/08/07 08:55:21;;;;;;;15.40;5.57;;;15.00;99.90;;;14.98;99.44;100399.13;4930201;29;20084;-87
2023/08/07 08:57:49;;;;;;;17.30;7.18;;;15.10;99.90;;;14.98;99.51;100399.13;4915476;29;20304;-87
2023/08/07 09:00:20;;;;;;;16.55;6.78;;;15.10;99.90;;;15.00;100.00;100407.75;4916207;29;20036;-86
2023/08/07 09:02:48;;;;;;;18.93;7.40;;;15.10;99.90;;;15.09;100.00;100402.81;4907205;29;20040;-86
2023/08/07 09:05:17;;;;;;;18.05;6.10;;;15.20;99.90;;;15.11;100.00;100414.13;4914874;29;20104;-86
2023/08/07 09:07:46;;;;;;;15.90;5.75;;;15.20;99.90;;;15.05;100.00;100410.53;4914832;29;20096;-87
2023/08/07 09:10:16;;;;;;;18.00;6.53;;;15.20;99.90;;;15.04;100.00;100411.59;4914641;29;20048;-87
2023/08/07 09:12:53;;;;;;;12.77;6.10;;;15.20;99.90;;;15.15;100.00;100417.97;4914766;29;20560;-86
2023/08/07 09:15:22;;;;;;;20.70;6.68;;;15.30;99.90;;;15.25;100.00;100423.50;4907161;29;20067;-83
2023/08/07 09:17:52;;;;;;;20.52;7.45;;;15.30;99.90;;;15.27;100.00;100418.69;4915674;29;20107;-92
2023/08/07 09:20:20;;;;;;;23.52;6.95;;;15.40;99.90;;;15.31;100.00;100419.84;4922662;29;20044;-92
2023/08/07 09:22:50;;;;;;;21.95;7.07;;;15.50;99.90;;;15.32;99.70;100426.03;4917086;29;20056;-91
2023/08/07 09:25:31;;;;;;;18.23;6.60;;;15.50;99.90;;;15.29;99.71;100427.34;4911986;29;20136;-91
2023/08/07 09:28:04;;;;;;;21.45;6.93;;;15.50;99.90;;;15.33;100.00;100433.84;4924653;29;20044;-92
2023/08/07 09:30:33;;;;;;;16.35;6.40;;;15.50;99.90;;;15.38;100.00;100433.94;4957916;28;20032;-90
2023/08/07 09:33:01;;;;;;;19.38;6.03;;;15.60;99.90;;;15.50;100.00;100433.03;4941080;29;20032;-90
2023/08/07 09:35:31;;;;;;;20.40;6.35;;;15.70;99.90;;;15.61;100.00;100432.13;4933984;29;20051;-90
2023/08/07 09:38:00;;;;;;;19.90;5.88;;;15.80;99.90;;;15.60;100.00;100442.06;4945664;23;20035;-88
2023/08/07 09:40:27;;;;;;;18.35;6.05;;;15.80;99.90;;;15.56;99.46;100421.31;4920226;29;20066;-87
2023/08/07 09:42:55;;;;;;;16.17;5.00;;;15.70;99.90;;;15.54;98.96;100428.81;4931277;29;20123;-86
2023/08/07 09:45:25;;;;;;;14.30;5.35;;;15.70;99.90;;;15.49;97.58;100442.16;4928834;29;20480;-87
2023/08/07 09:48:00;;;;;;;10.98;5.03;;;15.60;99.90;;;15.45;97.63;100444.53;4918693;29;20055;-87
2023/08/07 09:50:28;;;;;;;14.27;4.80;;;15.60;99.90;;;15.40;97.43;100450.63;4934245;29;20075;-87
2023/08/07 09:52:57;;;;;;;14.40;4.28;;;15.50;99.90;;;15.28;95.76;100466.03;4931583;29;20044;-86
2023/08/07 09:55:27;;;;;;;12.27;3.83;;;15.40;99.90;;;15.30;96.45;100461.22;4927354;29;20059;-87
2023/08/07 09:57:55;;;;;;;12.30;4.28;;;15.40;99.90;;;15.34;97.79;100454.28;4918892;29;20131;-87
2023/08/07 10:00:22;;;;;;;12.93;4.15;;;15.50;99.90;;;15.40;98.04;100463.25;4933053;29;20048;-86
2023/08/07 10:02:51;;;;;;;13.18;4.38;;;15.40;99.90;;;15.43;96.83;100466.28;4917517;29;20119;-88
2023/08/07 10:05:20;;;;;;;16.13;5.00;;;15.50;99.90;;;15.33;96.69;100471.47;4914059;29;20036;-88
2023/08/07 10:07:48;;;;;;;16.52;4.70;;;15.40;99.90;;;15.39;97.35;100472.38;4933636;29;20048;-88
2023/08/07 10:10:16;;;;;;;18.75;6.03;;;15.50;99.90;;;15.41;98.15;100471.06;4933116;29;20052;-87
2023/08/07 10:12:45;;;;;;;16.25;6.53;;;15.60;99.90;;;15.42;99.22;100472.72;4926295;29;20047;-87